sensor_id;sensor_type;location;lat;lon;timestamp;temperature;humidity
5956;DHT22;3004;48.080;11.600;2023-07-20T00:02:10;18.90;99.90
5956;DHT22;3004;48.080;11.600;2023-07-20T00:04:38;18.70;99.90
5956;DHT22;3004;48.080;11.600;2023-07-20T00:07:08;18.70;99.90
5956;DHT22;3004;48.080;11.600;2023-07-20T00:09:35;18.60;99.90
5956;DHT22;3004;48.080;11.600;2023-07-20T00:12:02;18.60;99.90
5956;DHT22;3004;48.080;11.600;2023-07-20T00:14:29;18.50;99.90
5956;DHT22;3004;48.080;11.600;2023-07-20T00:16:57;18.50;99.90
5956;DHT22;3004;48.080;11.600;2023-07-20T00:19:25;18.40;99.90
5956;DHT22;3004;48.080;11.600;2023-07-20T00:21:55;18.40;99.90
5956;DHT22;3004;48.080;11.600;2023-07-20T00:24:22;18.30;99.90
5956;DHT22;3004;48.080;11.600;2023-07-20T00:26:50;18.20;99.90
5956;DHT22;3004;48.080;11.600;2023-07-20T00:29:17;18.10;99.90
5956;DHT22;3004;48.080;11.600;2023-07-20T00:31:44;18.10;99.90
5956;DHT22;3004;48.080;11.600;2023-07-20T00:34:11;18.00;99.90
5956;DHT22;3004;48.080;11.600;2023-07-20T00:36:38;18.00;99.90
5956;DHT22;3004;48.080;11.600;2023-07-20T00:39:06;17.80;99.90
5956;DHT22;3004;48.080;11.600;2023-07-20T00:41:35;17.80;99.90
5956;DHT22;3004;48.080;11.600;2023-07-20T00:44:04;17.70;99.90
5956;DHT22;3004;48.080;11.600;2023-07-20T00:46:34;17.60;99.90
5956;DHT22;3004;48.080;11.600;2023-07-20T00:49:01;17.60;99.90
5956;DHT22;3004;48.080;11.600;2023-07-20T00:51:28;17.60;99.90
5956;DHT22;3004;48.080;11.600;2023-07-20T00:53:55;17.70;99.90
5956;DHT22;3004;48.080;11.600;2023-07-20T00:56:26;17.70;99.90
5956;DHT22;3004;48.080;11.600;2023-07-20T00:58:53;17.70;99.90
5956;DHT22;3004;48.080;11.600;2023-07-20T01:01:21;17.60;99.90
5956;DHT22;3004;48.080;11.600;2023-07-20T01:03:48;17.60;99.90
5956;DHT22;3004;48.080;11.600;2023-07-20T01:06:26;17.60;99.90
5956;DHT22;3004;48.080;11.600;2023-07-20T01:09:07;17.70;99.90
5956;DHT22;3004;48.080;11.600;2023-07-20T01:11:40;17.80;99.90
5956;DHT22;3004;48.080;11.600;2023-07-20T01:14:09;17.80;99.90
5956;DHT22;3004;48.080;11.600;2023-07-20T01:16:38;17.70;99.90
5956;DHT22;3004;48.080;11.600;2023-07-20T01:19:05;17.70;99.90
5956;DHT22;3004;48.080;11.600;2023-07-20T01:21:40;17.70;99.90
5956;DHT22;3004;48.080;11.600;2023-07-20T01:30:42;17.70;99.90
5956;DHT22;3004;48.080;11.600;2023-07-20T01:33:13;17.70;99.90
5956;DHT22;3004;48.080;11.600;2023-07-20T01:35:41;17.60;99.90
5956;DHT22;3004;48.080;11.600;2023-07-20T01:38:10;17.60;99.90
5956;DHT22;3004;48.080;11.600;2023-07-20T01:40:38;17.60;99.90
5956;DHT22;3004;48.080;11.600;2023-07-20T01:43:08;17.60;99.90
5956;DHT22;3004;48.080;11.600;2023-07-20T01:45:35;17.60;99.90
5956;DHT22;3004;48.080;11.600;2023-07-20T01:48:02;17.50;99.90
5956;DHT22;3004;48.080;11.600;2023-07-20T01:50:31;17.50;99.90
5956;DHT22;3004;48.080;11.600;2023-07-20T01:52:59;17.50;99.90
5956;DHT22;3004;48.080;11.600;2023-07-20T01:55:26;17.60;99.90
5956;DHT22;3004;48.080;11.600;2023-07-20T01:58:04;17.50;99.90
5956;DHT22;3004;48.080;11.600;2023-07-20T02:00:34;17.50;99.90
5956;DHT22;3004;48.080;11.600;2023-07-20T02:03:03;17.40;99.90
5956;DHT22;3004;48.080;11.600;2023-07-20T02:05:31;17.50;99.90
5956;DHT22;3004;48.080;11.600;2023-07-20T02:07:58;17.50;99.90
5956;DHT22;3004;48.080;11.600;2023-07-20T02:10:25;17.50;99.90
5956;DHT22;3004;48.080;11.600;2023-07-20T02:12:52;17.50;99.90
5956;DHT22;3004;48.080;11.600;2023-07-20T02:15:19;17.50;99.90
5956;DHT22;3004;48.080;11.600;2023-07-20T02:17:46;17.50;99.90
5956;DHT22;3004;48.080;11.600;2023-07-20T02:20:13;17.50;99.90
5956;DHT22;3004;48.080;11.600;2023-07-20T02:22:42;17.50;99.90
5956;DHT22;3004;48.080;11.600;2023-07-20T02:25:24;17.50;99.90
5956;DHT22;3004;48.080;11.600;2023-07-20T02:27:51;17.50;99.90
5956;DHT22;3004;48.080;11.600;2023-07-20T02:30:18;17.50;99.90
5956;DHT22;3004;48.080;11.600;2023-07-20T02:32:46;17.50;99.90
5956;DHT22;3004;48.080;11.600;2023-07-20T02:35:14;17.50;99.90
5956;DHT22;3004;48.080;11.600;2023-07-20T02:37:42;17.40;99.90
5956;DHT22;3004;48.080;11.600;2023-07-20T02:40:10;17.60;99.90
5956;DHT22;3004;48.080;11.600;2023-07-20T02:42:37;17.70;99.90
5956;DHT22;3004;48.080;11.600;2023-07-20T02:45:05;17.60;99.90
5956;DHT22;3004;48.080;11.600;2023-07-20T02:47:32;17.60;99.90
5956;DHT22;3004;48.080;11.600;2023-07-20T02:49:59;17.50;99.90
5956;DHT22;3004;48.080;11.600;2023-07-20T02:56:06;17.50;99.90
5956;DHT22;3004;48.080;11.600;2023-07-20T02:58:40;17.50;99.90
5956;DHT22;3004;48.080;11.600;2023-07-20T03:01:08;17.50;99.90
5956;DHT22;3004;48.080;11.600;2023-07-20T03:03:36;17.60;99.90
5956;DHT22;3004;48.080;11.600;2023-07-20T03:06:04;17.50;99.90
5956;DHT22;3004;48.080;11.600;2023-07-20T03:08:31;17.10;99.90
5956;DHT22;3004;48.080;11.600;2023-07-20T03:10:59;16.60;99.90
5956;DHT22;3004;48.080;11.600;2023-07-20T03:13:27;16.30;99.90
5956;DHT22;3004;48.080;11.600;2023-07-20T03:15:56;16.00;99.90
5956;DHT22;3004;48.080;11.600;2023-07-20T03:18:23;15.80;99.90
5956;DHT22;3004;48.080;11.600;2023-07-20T03:20:53;15.80;99.90
5956;DHT22;3004;48.080;11.600;2023-07-20T03:23:20;15.70;99.90
5956;DHT22;3004;48.080;11.600;2023-07-20T03:25:51;15.60;99.90
5956;DHT22;3004;48.080;11.600;2023-07-20T03:28:22;15.50;99.90
5956;DHT22;3004;48.080;11.600;2023-07-20T03:30:53;15.40;99.90
5956;DHT22;3004;48.080;11.600;2023-07-20T03:33:20;15.40;99.90
5956;DHT22;3004;48.080;11.600;2023-07-20T03:35:46;15.40;99.90
5956;DHT22;3004;48.080;11.600;2023-07-20T03:38:13;15.30;99.90
5956;DHT22;3004;48.080;11.600;2023-07-20T03:40:49;15.30;99.90
5956;DHT22;3004;48.080;11.600;2023-07-20T03:43:18;15.30;99.90
5956;DHT22;3004;48.080;11.600;2023-07-20T03:45:46;15.30;99.90
5956;DHT22;3004;48.080;11.600;2023-07-20T03:48:14;15.40;99.90
5956;DHT22;3004;48.080;11.600;2023-07-20T03:50:42;15.30;99.90
5956;DHT22;3004;48.080;11.600;2023-07-20T03:53:08;15.20;99.90
5956;DHT22;3004;48.080;11.600;2023-07-20T03:55:35;15.30;99.90
5956;DHT22;3004;48.080;11.600;2023-07-20T03:58:02;15.20;99.90
5956;DHT22;3004;48.080;11.600;2023-07-20T04:00:29;15.20;99.90
5956;DHT22;3004;48.080;11.600;2023-07-20T04:02:58;15.20;99.90
5956;DHT22;3004;48.080;11.600;2023-07-20T04:05:25;15.20;99.90
5956;DHT22;3004;48.080;11.600;2023-07-20T04:07:52;15.20;99.90
5956;DHT22;3004;48.080;11.600;2023-07-20T04:10:19;15.10;99.90
5956;DHT22;3004;48.080;11.600;2023-07-20T04:12:46;15.10;99.90
5956;DHT22;3004;48.080;11.600;2023-07-20T04:15:13;15.20;99.90
5956;DHT22;3004;48.080;11.600;2023-07-20T04:17:40;15.20;99.90
5956;DHT22;3004;48.080;11.600;2023-07-20T04:20:09;15.10;99.90
5956;DHT22;3004;48.080;11.600;2023-07-20T04:22:36;15.10;99.90
5956;DHT22;3004;48.080;11.600;2023-07-20T04:25:04;15.20;99.90
5956;DHT22;3004;48.080;11.600;2023-07-20T04:27:31;15.10;99.90
5956;DHT22;3004;48.080;11.600;2023-07-20T05:00:30;15.30;99.90
5956;DHT22;3004;48.080;11.600;2023-07-20T05:03:51;15.30;99.90
5956;DHT22;3004;48.080;11.600;2023-07-20T05:13:15;15.30;99.90
5956;DHT22;3004;48.080;11.600;2023-07-20T05:18:51;15.20;99.90
5956;DHT22;3004;48.080;11.600;2023-07-20T05:21:41;15.30;99.90
5956;DHT22;3004;48.080;11.600;2023-07-20T05:28:00;15.40;99.90
5956;DHT22;3004;48.080;11.600;2023-07-20T05:34:16;15.50;99.90
5956;DHT22;3004;48.080;11.600;2023-07-20T05:37:20;15.50;99.90
5956;DHT22;3004;48.080;11.600;2023-07-20T05:43:35;15.60;99.90
5956;DHT22;3004;48.080;11.600;2023-07-20T05:46:14;15.70;99.90
5956;DHT22;3004;48.080;11.600;2023-07-20T05:49:04;15.70;99.90
5956;DHT22;3004;48.080;11.600;2023-07-20T05:51:43;15.70;99.90
5956;DHT22;3004;48.080;11.600;2023-07-20T05:55:05;15.70;99.90
5956;DHT22;3004;48.080;11.600;2023-07-20T06:01:03;15.90;99.90
5956;DHT22;3004;48.080;11.600;2023-07-20T06:03:49;15.90;99.90
5956;DHT22;3004;48.080;11.600;2023-07-20T06:06:25;15.90;99.90
5956;DHT22;3004;48.080;11.600;2023-07-20T06:09:26;16.00;99.90
5956;DHT22;3004;48.080;11.600;2023-07-20T06:12:06;16.10;99.90
5956;DHT22;3004;48.080;11.600;2023-07-20T06:14:43;16.10;99.90
5956;DHT22;3004;48.080;11.600;2023-07-20T06:17:32;16.10;99.90
5956;DHT22;3004;48.080;11.600;2023-07-20T06:19:59;16.20;99.90
5956;DHT22;3004;48.080;11.600;2023-07-20T06:22:41;16.30;99.90
5956;DHT22;3004;48.080;11.600;2023-07-20T06:25:20;16.30;99.90
5956;DHT22;3004;48.080;11.600;2023-07-20T06:27:55;16.40;99.90
5956;DHT22;3004;48.080;11.600;2023-07-20T06:30:35;16.40;99.90
5956;DHT22;3004;48.080;11.600;2023-07-20T06:33:09;16.40;99.90
5956;DHT22;3004;48.080;11.600;2023-07-20T06:35:41;16.30;99.90
5956;DHT22;3004;48.080;11.600;2023-07-20T06:38:13;16.40;99.90
5956;DHT22;3004;48.080;11.600;2023-07-20T06:40:49;16.40;99.90
5956;DHT22;3004;48.080;11.600;2023-07-20T06:43:16;16.40;99.90
5956;DHT22;3004;48.080;11.600;2023-07-20T06:45:50;16.50;99.90
5956;DHT22;3004;48.080;11.600;2023-07-20T06:48:19;16.50;99.90
5956;DHT22;3004;48.080;11.600;2023-07-20T06:50:49;16.50;99.90
5956;DHT22;3004;48.080;11.600;2023-07-20T06:53:18;16.60;99.90
5956;DHT22;3004;48.080;11.600;2023-07-20T06:55:47;16.60;99.90
5956;DHT22;3004;48.080;11.600;2023-07-20T06:58:17;16.60;99.90
5956;DHT22;3004;48.080;11.600;2023-07-20T07:00:44;16.80;99.90
5956;DHT22;3004;48.080;11.600;2023-07-20T07:03:11;17.00;99.90
5956;DHT22;3004;48.080;11.600;2023-07-20T07:05:43;17.10;99.90
5956;DHT22;3004;48.080;11.600;2023-07-20T07:08:13;17.10;99.90
5956;DHT22;3004;48.080;11.600;2023-07-20T07:10:40;17.00;99.90
5956;DHT22;3004;48.080;11.600;2023-07-20T07:13:08;17.00;99.90
5956;DHT22;3004;48.080;11.600;2023-07-20T07:15:36;17.20;99.90
5956;DHT22;3004;48.080;11.600;2023-07-20T07:18:05;17.40;99.90
5956;DHT22;3004;48.080;11.600;2023-07-20T07:20:34;17.30;99.90
5956;DHT22;3004;48.080;11.600;2023-07-20T07:23:01;17.40;99.90
5956;DHT22;3004;48.080;11.600;2023-07-20T07:25:28;17.40;99.90
5956;DHT22;3004;48.080;11.600;2023-07-20T07:27:55;17.60;99.90
5956;DHT22;3004;48.080;11.600;2023-07-20T07:30:27;17.60;99.90
5956;DHT22;3004;48.080;11.600;2023-07-20T07:32:54;17.80;99.90
5956;DHT22;3004;48.080;11.600;2023-07-20T07:35:21;18.00;99.90
5956;DHT22;3004;48.080;11.600;2023-07-20T07:37:48;18.10;99.90
5956;DHT22;3004;48.080;11.600;2023-07-20T07:40:15;18.20;99.90
5956;DHT22;3004;48.080;11.600;2023-07-20T07:42:42;18.20;99.90
5956;DHT22;3004;48.080;11.600;2023-07-20T07:45:10;18.30;99.90
5956;DHT22;3004;48.080;11.600;2023-07-20T07:47:42;18.30;99.90
5956;DHT22;3004;48.080;11.600;2023-07-20T07:50:12;18.30;99.90
5956;DHT22;3004;48.080;11.600;2023-07-20T07:52:39;18.40;99.90
5956;DHT22;3004;48.080;11.600;2023-07-20T07:55:07;18.60;99.90
5956;DHT22;3004;48.080;11.600;2023-07-20T07:57:34;18.70;99.90
5956;DHT22;3004;48.080;11.600;2023-07-20T08:00:01;18.70;99.90
5956;DHT22;3004;48.080;11.600;2023-07-20T08:02:29;18.60;99.90
5956;DHT22;3004;48.080;11.600;2023-07-20T08:04:59;18.80;99.90
5956;DHT22;3004;48.080;11.600;2023-07-20T08:07:28;18.80;99.90
5956;DHT22;3004;48.080;11.600;2023-07-20T08:09:56;18.70;99.90
5956;DHT22;3004;48.080;11.600;2023-07-20T08:12:24;18.60;99.90
5956;DHT22;3004;48.080;11.600;2023-07-20T08:14:51;18.50;99.90
5956;DHT22;3004;48.080;11.600;2023-07-20T08:17:19;18.50;99.90
5956;DHT22;3004;48.080;11.600;2023-07-20T08:20:02;18.60;99.90
5956;DHT22;3004;48.080;11.600;2023-07-20T08:22:29;18.70;99.90
5956;DHT22;3004;48.080;11.600;2023-07-20T08:24:56;18.90;99.90
5956;DHT22;3004;48.080;11.600;2023-07-20T08:27:24;19.00;99.90
5956;DHT22;3004;48.080;11.600;2023-07-20T08:29:55;19.30;99.90
5956;DHT22;3004;48.080;11.600;2023-07-20T08:32:32;19.30;99.90
5956;DHT22;3004;48.080;11.600;2023-07-20T08:35:04;19.40;99.90
5956;DHT22;3004;48.080;11.600;2023-07-20T08:37:32;19.20;99.90
5956;DHT22;3004;48.080;11.600;2023-07-20T08:40:00;19.20;99.90
5956;DHT22;3004;48.080;11.600;2023-07-20T08:42:37;19.20;99.90
5956;DHT22;3004;48.080;11.600;2023-07-20T08:45:19;19.20;99.90
5956;DHT22;3004;48.080;11.600;2023-07-20T08:47:48;19.40;99.90
5956;DHT22;3004;48.080;11.600;2023-07-20T08:50:29;19.60;99.90
5956;DHT22;3004;48.080;11.600;2023-07-20T08:52:58;19.70;99.90
5956;DHT22;3004;48.080;11.600;2023-07-20T08:55:26;19.60;99.90
5956;DHT22;3004;48.080;11.600;2023-07-20T08:57:54;19.40;99.90
5956;DHT22;3004;48.080;11.600;2023-07-20T09:00:23;19.50;99.90
5956;DHT22;3004;48.080;11.600;2023-07-20T09:02:53;19.60;99.90
5956;DHT22;3004;48.080;11.600;2023-07-20T09:05:23;19.90;99.90
5956;DHT22;3004;48.080;11.600;2023-07-20T09:07:51;20.00;99.90
5956;DHT22;3004;48.080;11.600;2023-07-20T09:10:20;20.00;99.90
5956;DHT22;3004;48.080;11.600;2023-07-20T09:12:47;20.10;99.90
5956;DHT22;3004;48.080;11.600;2023-07-20T09:15:14;20.20;99.90
5956;DHT22;3004;48.080;11.600;2023-07-20T09:17:46;20.40;99.90
5956;DHT22;3004;48.080;11.600;2023-07-20T09:20:17;20.60;99.90
5956;DHT22;3004;48.080;11.600;2023-07-20T09:22:46;20.40;99.90
5956;DHT22;3004;48.080;11.600;2023-07-20T09:25:16;20.30;99.90
5956;DHT22;3004;48.080;11.600;2023-07-20T09:27:46;20.40;99.90
5956;DHT22;3004;48.080;11.600;2023-07-20T09:30:15;20.40;99.90
5956;DHT22;3004;48.080;11.600;2023-07-20T09:32:44;20.30;99.90
5956;DHT22;3004;48.080;11.600;2023-07-20T09:35:14;20.30;99.90
5956;DHT22;3004;48.080;11.600;2023-07-20T09:37:49;20.50;99.90
5956;DHT22;3004;48.080;11.600;2023-07-20T09:40:20;20.50;99.90
5956;DHT22;3004;48.080;11.600;2023-07-20T09:42:47;20.50;99.90
5956;DHT22;3004;48.080;11.600;2023-07-20T09:45:14;20.40;99.90
5956;DHT22;3004;48.080;11.600;2023-07-20T09:47:41;20.40;99.90
5956;DHT22;3004;48.080;11.600;2023-07-20T09:50:09;20.50;99.90
5956;DHT22;3004;48.080;11.600;2023-07-20T09:52:41;20.60;99.90
5956;DHT22;3004;48.080;11.600;2023-07-20T09:55:13;20.30;99.90
5956;DHT22;3004;48.080;11.600;2023-07-20T09:57:40;20.50;99.90
5956;DHT22;3004;48.080;11.600;2023-07-20T10:00:08;20.40;99.90
5956;DHT22;3004;48.080;11.600;2023-07-20T10:02:42;20.30;99.90
5956;DHT22;3004;48.080;11.600;2023-07-20T10:05:11;20.20;99.90
5956;DHT22;3004;48.080;11.600;2023-07-20T10:07:44;20.20;99.90
5956;DHT22;3004;48.080;11.600;2023-07-20T10:10:15;20.30;99.90
5956;DHT22;3004;48.080;11.600;2023-07-20T10:12:47;20.40;99.90
5956;DHT22;3004;48.080;11.600;2023-07-20T10:15:24;20.40;99.90
5956;DHT22;3004;48.080;11.600;2023-07-20T10:17:59;20.40;99.90
5956;DHT22;3004;48.080;11.600;2023-07-20T10:20:30;20.70;99.90
5956;DHT22;3004;48.080;11.600;2023-07-20T10:23:01;20.70;99.90
5956;DHT22;3004;48.080;11.600;2023-07-20T10:25:34;20.90;99.90
5956;DHT22;3004;48.080;11.600;2023-07-20T10:28:04;21.00;99.90
5956;DHT22;3004;48.080;11.600;2023-07-20T10:30:35;21.20;99.90
5956;DHT22;3004;48.080;11.600;2023-07-20T10:33:03;21.30;99.90
5956;DHT22;3004;48.080;11.600;2023-07-20T10:35:31;21.30;99.90
5956;DHT22;3004;48.080;11.600;2023-07-20T10:38:19;21.20;99.90
5956;DHT22;3004;48.080;11.600;2023-07-20T10:40:55;21.10;99.90
5956;DHT22;3004;48.080;11.600;2023-07-20T10:43:22;20.80;99.90
5956;DHT22;3004;48.080;11.600;2023-07-20T10:45:51;20.90;99.90
5956;DHT22;3004;48.080;11.600;2023-07-20T10:48:21;20.90;99.90
5956;DHT22;3004;48.080;11.600;2023-07-20T10:51:11;21.10;99.90
5956;DHT22;3004;48.080;11.600;2023-07-20T10:53:45;21.20;99.90
5956;DHT22;3004;48.080;11.600;2023-07-20T10:56:21;21.20;99.90
5956;DHT22;3004;48.080;11.600;2023-07-20T10:58:48;21.00;99.90
5956;DHT22;3004;48.080;11.600;2023-07-20T11:01:16;21.10;99.90
5956;DHT22;3004;48.080;11.600;2023-07-20T11:03:49;21.30;99.90
5956;DHT22;3004;48.080;11.600;2023-07-20T11:06:32;21.30;99.90
5956;DHT22;3004;48.080;11.600;2023-07-20T11:09:06;21.20;99.90
5956;DHT22;3004;48.080;11.600;2023-07-20T11:11:35;21.40;99.90
5956;DHT22;3004;48.080;11.600;2023-07-20T11:14:07;21.60;99.90
5956;DHT22;3004;48.080;11.600;2023-07-20T11:16:39;22.00;99.90
5956;DHT22;3004;48.080;11.600;2023-07-20T11:19:16;22.40;99.90
5956;DHT22;3004;48.080;11.600;2023-07-20T11:21:47;22.00;99.90
5956;DHT22;3004;48.080;11.600;2023-07-20T11:24:26;22.00;99.90
5956;DHT22;3004;48.080;11.600;2023-07-20T11:26:55;22.40;99.90
5956;DHT22;3004;48.080;11.600;2023-07-20T11:29:23;22.70;99.90
5956;DHT22;3004;48.080;11.600;2023-07-20T11:31:51;23.00;99.90
5956;DHT22;3004;48.080;11.600;2023-07-20T11:34:22;22.80;99.90
5956;DHT22;3004;48.080;11.600;2023-07-20T11:36:50;22.50;99.90
5956;DHT22;3004;48.080;11.600;2023-07-20T11:39:19;22.20;99.90
5956;DHT22;3004;48.080;11.600;2023-07-20T11:41:47;22.30;99.90
5956;DHT22;3004;48.080;11.600;2023-07-20T11:44:17;22.30;99.90
5956;DHT22;3004;48.080;11.600;2023-07-20T11:46:45;22.00;99.90
5956;DHT22;3004;48.080;11.600;2023-07-20T11:49:13;21.90;99.90
5956;DHT22;3004;48.080;11.600;2023-07-20T11:51:46;21.90;99.90
5956;DHT22;3004;48.080;11.600;2023-07-20T11:54:13;21.90;99.90
5956;DHT22;3004;48.080;11.600;2023-07-20T11:56:41;22.00;99.90
5956;DHT22;3004;48.080;11.600;2023-07-20T11:59:09;22.40;99.90
5956;DHT22;3004;48.080;11.600;2023-07-20T12:01:38;22.30;99.90
5956;DHT22;3004;48.080;11.600;2023-07-20T12:04:05;22.60;99.90
5956;DHT22;3004;48.080;11.600;2023-07-20T12:06:33;22.60;99.90
5956;DHT22;3004;48.080;11.600;2023-07-20T12:09:00;22.30;99.90
5956;DHT22;3004;48.080;11.600;2023-07-20T12:11:31;22.10;99.90
5956;DHT22;3004;48.080;11.600;2023-07-20T12:13:58;22.30;99.90
5956;DHT22;3004;48.080;11.600;2023-07-20T12:16:27;22.30;99.90
5956;DHT22;3004;48.080;11.600;2023-07-20T12:19:01;22.50;99.90
5956;DHT22;3004;48.080;11.600;2023-07-20T12:21:29;22.50;99.90
5956;DHT22;3004;48.080;11.600;2023-07-20T12:23:56;22.30;99.90
5956;DHT22;3004;48.080;11.600;2023-07-20T12:26:26;22.30;99.90
5956;DHT22;3004;48.080;11.600;2023-07-20T12:28:55;22.80;99.90
5956;DHT22;3004;48.080;11.600;2023-07-20T12:31:23;22.50;99.90
5956;DHT22;3004;48.080;11.600;2023-07-20T12:33:50;22.40;99.90
5956;DHT22;3004;48.080;11.600;2023-07-20T12:36:19;22.20;99.90
5956;DHT22;3004;48.080;11.600;2023-07-20T12:38:46;22.50;99.90
5956;DHT22;3004;48.080;11.600;2023-07-20T12:41:15;22.70;99.90
5956;DHT22;3004;48.080;11.600;2023-07-20T12:43:43;22.80;99.90
5956;DHT22;3004;48.080;11.600;2023-07-20T12:46:11;22.80;99.90
5956;DHT22;3004;48.080;11.600;2023-07-20T12:48:47;22.90;99.90
5956;DHT22;3004;48.080;11.600;2023-07-20T12:51:15;22.70;99.90
5956;DHT22;3004;48.080;11.600;2023-07-20T12:53:46;23.00;99.90
5956;DHT22;3004;48.080;11.600;2023-07-20T12:56:13;23.00;99.90
5956;DHT22;3004;48.080;11.600;2023-07-20T12:58:41;23.20;99.90
5956;DHT22;3004;48.080;11.600;2023-07-20T13:01:08;23.20;99.90
5956;DHT22;3004;48.080;11.600;2023-07-20T13:03:35;23.10;99.90
5956;DHT22;3004;48.080;11.600;2023-07-20T13:06:02;23.00;99.90
5956;DHT22;3004;48.080;11.600;2023-07-20T13:08:31;23.10;99.90
5956;DHT22;3004;48.080;11.600;2023-07-20T13:10:59;23.40;99.90
5956;DHT22;3004;48.080;11.600;2023-07-20T13:13:29;23.20;99.90
5956;DHT22;3004;48.080;11.600;2023-07-20T13:15:56;23.40;99.90
5956;DHT22;3004;48.080;11.600;2023-07-20T13:18:24;23.40;99.90
5956;DHT22;3004;48.080;11.600;2023-07-20T13:20:52;23.50;99.90
5956;DHT22;3004;48.080;11.600;2023-07-20T13:23:32;23.50;99.90
5956;DHT22;3004;48.080;11.600;2023-07-20T13:26:39;24.00;99.90
5956;DHT22;3004;48.080;11.600;2023-07-20T13:29:09;23.80;99.90
5956;DHT22;3004;48.080;11.600;2023-07-20T13:31:37;23.80;99.90
5956;DHT22;3004;48.080;11.600;2023-07-20T13:34:09;24.00;99.90
5956;DHT22;3004;48.080;11.600;2023-07-20T13:36:36;23.70;99.90
5956;DHT22;3004;48.080;11.600;2023-07-20T13:45:49;24.90;99.90
5956;DHT22;3004;48.080;11.600;2023-07-20T13:48:18;24.90;99.90
5956;DHT22;3004;48.080;11.600;2023-07-20T13:50:49;24.50;99.90
5956;DHT22;3004;48.080;11.600;2023-07-20T13:53:21;24.50;99.90
5956;DHT22;3004;48.080;11.600;2023-07-20T13:55:53;24.30;99.90
5956;DHT22;3004;48.080;11.600;2023-07-20T13:58:22;23.80;99.90
5956;DHT22;3004;48.080;11.600;2023-07-20T14:00:50;23.70;99.90
5956;DHT22;3004;48.080;11.600;2023-07-20T14:03:17;23.90;99.90
5956;DHT22;3004;48.080;11.600;2023-07-20T14:05:46;23.90;99.90
5956;DHT22;3004;48.080;11.600;2023-07-20T14:08:18;23.90;99.90
5956;DHT22;3004;48.080;11.600;2023-07-20T14:10:45;23.80;99.90
5956;DHT22;3004;48.080;11.600;2023-07-20T14:13:12;23.70;99.90
5956;DHT22;3004;48.080;11.600;2023-07-20T14:15:41;23.60;99.90
5956;DHT22;3004;48.080;11.600;2023-07-20T14:18:11;23.90;99.90
5956;DHT22;3004;48.080;11.600;2023-07-20T14:20:38;24.20;99.90
5956;DHT22;3004;48.080;11.600;2023-07-20T14:26:18;23.80;99.90
5956;DHT22;3004;48.080;11.600;2023-07-20T14:28:46;24.00;99.90
5956;DHT22;3004;48.080;11.600;2023-07-20T14:31:13;24.20;99.90
5956;DHT22;3004;48.080;11.600;2023-07-20T14:33:42;24.20;99.90
5956;DHT22;3004;48.080;11.600;2023-07-20T14:36:12;24.30;99.90
5956;DHT22;3004;48.080;11.600;2023-07-20T14:38:39;24.40;99.90
5956;DHT22;3004;48.080;11.600;2023-07-20T14:41:09;24.90;99.90
5956;DHT22;3004;48.080;11.600;2023-07-20T14:43:40;25.00;99.90
5956;DHT22;3004;48.080;11.600;2023-07-20T14:46:13;24.70;99.90
5956;DHT22;3004;48.080;11.600;2023-07-20T14:48:49;25.00;99.90
5956;DHT22;3004;48.080;11.600;2023-07-20T14:51:20;25.00;99.90
5956;DHT22;3004;48.080;11.600;2023-07-20T14:53:49;25.10;99.90
5956;DHT22;3004;48.080;11.600;2023-07-20T14:56:22;24.50;99.90
5956;DHT22;3004;48.080;11.600;2023-07-20T14:58:49;24.40;99.90
5956;DHT22;3004;48.080;11.600;2023-07-20T15:01:18;24.40;99.90
5956;DHT22;3004;48.080;11.600;2023-07-20T15:07:17;24.60;99.90
5956;DHT22;3004;48.080;11.600;2023-07-20T15:09:46;24.60;99.90
5956;DHT22;3004;48.080;11.600;2023-07-20T15:12:15;24.60;99.90
5956;DHT22;3004;48.080;11.600;2023-07-20T15:14:43;24.30;99.90
5956;DHT22;3004;48.080;11.600;2023-07-20T15:17:11;24.30;99.90
5956;DHT22;3004;48.080;11.600;2023-07-20T15:19:38;24.00;99.90
5956;DHT22;3004;48.080;11.600;2023-07-20T15:22:12;24.20;99.90
5956;DHT22;3004;48.080;11.600;2023-07-20T15:24:41;23.80;99.90
5956;DHT22;3004;48.080;11.600;2023-07-20T15:27:15;23.60;99.90
5956;DHT22;3004;48.080;11.600;2023-07-20T15:29:42;23.80;99.90
5956;DHT22;3004;48.080;11.600;2023-07-20T15:32:13;24.00;99.90
5956;DHT22;3004;48.080;11.600;2023-07-20T15:34:46;24.00;99.90
5956;DHT22;3004;48.080;11.600;2023-07-20T15:37:17;23.90;99.90
5956;DHT22;3004;48.080;11.600;2023-07-20T15:39:52;24.20;99.90
5956;DHT22;3004;48.080;11.600;2023-07-20T15:42:23;24.10;99.90
5956;DHT22;3004;48.080;11.600;2023-07-20T15:44:51;24.20;99.90
5956;DHT22;3004;48.080;11.600;2023-07-20T15:47:18;24.00;99.90
5956;DHT22;3004;48.080;11.600;2023-07-20T15:49:45;23.90;99.90
5956;DHT22;3004;48.080;11.600;2023-07-20T15:52:13;23.90;99.90
5956;DHT22;3004;48.080;11.600;2023-07-20T15:54:45;24.10;99.90
5956;DHT22;3004;48.080;11.600;2023-07-20T15:57:15;24.30;99.90
5956;DHT22;3004;48.080;11.600;2023-07-20T15:59:43;24.50;99.90
5956;DHT22;3004;48.080;11.600;2023-07-20T16:02:10;24.40;99.90
5956;DHT22;3004;48.080;11.600;2023-07-20T16:04:43;24.30;99.90
5956;DHT22;3004;48.080;11.600;2023-07-20T16:07:21;24.10;99.90
5956;DHT22;3004;48.080;11.600;2023-07-20T16:09:48;23.90;99.90
5956;DHT22;3004;48.080;11.600;2023-07-20T16:12:17;23.70;99.90
5956;DHT22;3004;48.080;11.600;2023-07-20T16:14:51;23.70;99.90
5956;DHT22;3004;48.080;11.600;2023-07-20T16:17:21;23.60;99.90
5956;DHT22;3004;48.080;11.600;2023-07-20T16:19:48;23.70;99.90
5956;DHT22;3004;48.080;11.600;2023-07-20T16:22:17;23.50;99.90
5956;DHT22;3004;48.080;11.600;2023-07-20T16:24:48;23.30;99.90
5956;DHT22;3004;48.080;11.600;2023-07-20T16:27:19;23.50;99.90
5956;DHT22;3004;48.080;11.600;2023-07-20T16:29:46;23.40;99.90
5956;DHT22;3004;48.080;11.600;2023-07-20T16:32:16;23.70;99.90
5956;DHT22;3004;48.080;11.600;2023-07-20T16:34:46;23.70;99.90
5956;DHT22;3004;48.080;11.600;2023-07-20T16:37:13;23.70;99.90
5956;DHT22;3004;48.080;11.600;2023-07-20T16:39:40;23.70;99.90
5956;DHT22;3004;48.080;11.600;2023-07-20T16:42:09;23.80;99.90
5956;DHT22;3004;48.080;11.600;2023-07-20T16:44:39;23.80;99.90
5956;DHT22;3004;48.080;11.600;2023-07-20T16:47:09;23.70;99.90
5956;DHT22;3004;48.080;11.600;2023-07-20T16:49:37;23.40;99.90
5956;DHT22;3004;48.080;11.600;2023-07-20T16:52:05;23.50;99.90
5956;DHT22;3004;48.080;11.600;2023-07-20T16:54:32;23.50;99.90
5956;DHT22;3004;48.080;11.600;2023-07-20T16:56:59;23.60;99.90
5956;DHT22;3004;48.080;11.600;2023-07-20T16:59:28;23.60;99.90
5956;DHT22;3004;48.080;11.600;2023-07-20T17:01:58;23.80;99.90
5956;DHT22;3004;48.080;11.600;2023-07-20T17:04:25;23.80;99.90
5956;DHT22;3004;48.080;11.600;2023-07-20T17:06:52;23.50;99.90
5956;DHT22;3004;48.080;11.600;2023-07-20T17:09:21;23.40;99.90
5956;DHT22;3004;48.080;11.600;2023-07-20T17:11:50;23.30;99.90
5956;DHT22;3004;48.080;11.600;2023-07-20T17:14:17;23.30;99.90
5956;DHT22;3004;48.080;11.600;2023-07-20T17:16:50;23.30;99.90
5956;DHT22;3004;48.080;11.600;2023-07-20T17:19:19;23.50;99.90
5956;DHT22;3004;48.080;11.600;2023-07-20T17:21:54;23.60;99.90
5956;DHT22;3004;48.080;11.600;2023-07-20T17:24:22;23.60;99.90